Time;durP1;ratioP1;P1;durP2;ratioP2;P2;SDS_P1;SDS_P2;PMS_P1;PMS_P2;Temp;Humidity;BMP_temperature;BMP_pressure;BME280_temperature;BME280_humidity;BME280_pressure;Samples;Min_cycle;Max_cycle;Signal;HPM_P1;HPM_P2
2022/11/01 02:47:13;;;;;;;20.03;3.70;;;;;;;;;;1972455;72;27888;-82
2022/11/01 02:49:43;;;;;;;17.07;4.27;;;;;;;;;;1865649;76;26288;-82
2022/11/01 02:52:13;;;;;;;16.27;3.63;;;;;;;;;;1840921;77;26256;-82
2022/11/01 02:54:43;;;;;;;15.40;3.70;;;;;;;;;;1863005;76;26525;-82
2022/11/01 02:57:16;;;;;;;15.77;4.30;;;;;;;;;;1885522;76;26524;-82
2022/11/01 02:59:47;;;;;;;17.17;4.03;;;;;;;;;;1933406;74;26256;-82
2022/11/01 03:02:18;;;;;;;16.43;3.60;;;;;;;;;;1934610;74;26252;-83
2022/11/01 03:04:47;;;;;;;20.73;4.17;;;;;;;;;;1934802;74;26811;-84
2022/11/01 03:07:16;;;;;;;17.83;4.47;;;;;;;;;;1934746;74;26492;-85
2022/11/01 03:09:45;;;;;;;18.50;4.03;;;;;;;;;;1934695;74;26509;-85
2022/11/01 03:12:16;;;;;;;18.50;4.40;;;;;;;;;;1934897;74;26255;-86
2022/11/01 03:14:46;;;;;;;18.53;4.13;;;;;;;;;;1934660;74;26337;-84
2022/11/01 03:17:16;;;;;;;17.90;3.80;;;;;;;;;;1934775;74;26301;-85
2022/11/01 03:19:45;;;;;;;18.93;3.97;;;;;;;;;;1934369;74;26623;-84
2022/11/01 03:22:15;;;;;;;15.97;3.53;;;;;;;;;;1934459;74;26251;-86
2022/11/01 03:24:47;;;;;;;20.00;4.33;;;;;;;;;;1934764;74;26243;-87
2022/11/01 03:27:17;;;;;;;21.83;4.20;;;;;;;;;;1934591;74;26235;-87
2022/11/01 03:29:48;;;;;;;16.33;3.77;;;;;;;;;;1934815;74;26725;-87
2022/11/01 03:32:17;;;;;;;19.40;4.33;;;;;;;;;;1934863;74;26232;-87
2022/11/01 03:34:46;;;;;;;15.53;3.93;;;;;;;;;;1934955;74;26946;-87
2022/11/01 03:37:15;;;;;;;11.63;3.63;;;;;;;;;;1908866;74;26566;-86
2022/11/01 03:39:45;;;;;;;18.73;4.40;;;;;;;;;;1934759;74;26232;-86
2022/11/01 03:42:16;;;;;;;17.17;3.47;;;;;;;;;;1910946;74;26293;-84
2022/11/01 03:44:47;;;;;;;14.70;3.33;;;;;;;;;;1716783;77;692899;-83
2022/11/01 03:47:17;;;;;;;18.53;4.03;;;;;;;;;;1866588;75;206263;-81
2022/11/01 03:49:45;;;;;;;17.63;4.97;;;;;;;;;;1887341;75;220157;-79
2022/11/01 03:52:14;;;;;;;16.90;3.40;;;;;;;;;;1865094;77;27459;-78
2022/11/01 03:54:42;;;;;;;20.93;4.33;;;;;;;;;;1840191;77;26273;-77
2022/11/01 03:57:11;;;;;;;19.63;3.43;;;;;;;;;;1839517;77;26707;-76
2022/11/01 03:59:39;;;;;;;14.40;3.07;;;;;;;;;;1839581;77;26296;-75
2022/11/01 04:02:08;;;;;;;12.83;3.57;;;;;;;;;;1863227;77;26766;-75
2022/11/01 04:04:36;;;;;;;16.90;3.83;;;;;;;;;;1839253;77;26440;-74
2022/11/01 04:07:05;;;;;;;14.40;3.97;;;;;;;;;;1899956;75;26266;-74
2022/11/01 04:09:33;;;;;;;16.60;3.30;;;;;;;;;;1863849;77;26238;-74
2022/11/01 04:12:01;;;;;;;17.03;3.63;;;;;;;;;;1875153;75;26251;-73
2022/11/01 04:22:48;;;;;;;11.63;2.93;;;;;;;;;;1863689;77;27382;-72
2022/11/01 04:25:17;;;;;;;16.20;3.93;;;;;;;;;;1839456;77;26550;-72
2022/11/01 04:27:45;;;;;;;16.03;3.47;;;;;;;;;;1900060;75;26254;-72
2022/11/01 04:30:14;;;;;;;13.93;3.00;;;;;;;;;;1900058;75;26796;-72
2022/11/01 04:32:43;;;;;;;18.40;4.10;;;;;;;;;;1863954;77;26331;-71
2022/11/01 04:35:12;;;;;;;18.47;4.00;;;;;;;;;;1900244;75;26713;-71
2022/11/01 04:37:40;;;;;;;11.97;2.83;;;;;;;;;;1839645;77;26277;-71
2022/11/01 04:40:09;;;;;;;16.77;3.70;;;;;;;;;;1839464;77;26340;-71
2022/11/01 04:42:38;;;;;;;17.80;3.53;;;;;;;;;;1865764;75;26589;-71
2022/11/01 04:45:08;;;;;;;12.47;3.13;;;;;;;;;;1877455;75;26203;-71
2022/11/01 04:47:37;;;;;;;13.23;3.23;;;;;;;;;;1866116;77;26277;-71
2022/11/01 04:50:06;;;;;;;13.00;3.63;;;;;;;;;;1902218;75;26206;-70
2022/11/01 04:52:35;;;;;;;12.13;3.00;;;;;;;;;;1865775;77;26694;-71
2022/11/01 04:55:03;;;;;;;12.03;3.30;;;;;;;;;;1902198;75;26699;-71
2022/11/01 04:57:33;;;;;;;14.47;3.50;;;;;;;;;;1865874;77;26222;-71
2022/11/01 05:00:01;;;;;;;13.43;3.17;;;;;;;;;;1901858;75;26218;-71
2022/11/01 05:02:30;;;;;;;13.77;3.47;;;;;;;;;;1778315;75;609807;-71
2022/11/01 05:04:58;;;;;;;15.33;3.60;;;;;;;;;;1784546;80;26305;-71
2022/11/01 05:07:28;;;;;;;21.30;4.10;;;;;;;;;;1750159;82;26250;-70
2022/11/01 05:09:56;;;;;;;15.53;3.53;;;;;;;;;;1750110;82;26234;-71
2022/11/01 05:12:25;;;;;;;14.73;3.77;;;;;;;;;;1713065;83;26273;-71
2022/11/01 05:14:53;;;;;;;21.13;4.40;;;;;;;;;;1750189;82;26834;-71
2022/11/01 05:17:21;;;;;;;15.10;3.83;;;;;;;;;;1730736;82;26274;-71
2022/11/01 05:19:49;;;;;;;19.00;3.90;;;;;;;;;;1730952;82;26250;-71
2022/11/01 05:22:18;;;;;;;21.47;4.50;;;;;;;;;;1750252;82;26262;-71
2022/11/01 05:24:46;;;;;;;23.80;4.87;;;;;;;;;;1702900;83;26303;-70
2022/11/01 05:27:14;;;;;;;18.37;4.30;;;;;;;;;;1721225;83;26324;-71
2022/11/01 05:29:43;;;;;;;20.53;4.67;;;;;;;;;;1698524;83;26236;-71
2022/11/01 05:32:12;;;;;;;19.07;4.67;;;;;;;;;;1721337;83;26271;-71
2022/11/01 05:34:40;;;;;;;26.30;4.60;;;;;;;;;;1750256;82;26307;-71
2022/11/01 05:37:08;;;;;;;20.53;3.97;;;;;;;;;;1750007;82;26277;-71
2022/11/01 05:39:36;;;;;;;21.90;4.97;;;;;;;;;;1750215;82;26254;-70
2022/11/01 05:42:05;;;;;;;21.40;4.93;;;;;;;;;;1749954;82;26887;-70
2022/11/01 05:44:33;;;;;;;22.17;5.07;;;;;;;;;;1750255;82;26339;-70
2022/11/01 05:47:03;;;;;;;22.57;4.30;;;;;;;;;;1749968;80;26372;-69
2022/11/01 05:49:31;;;;;;;26.40;4.50;;;;;;;;;;1750197;82;26305;-69
2022/11/01 05:52:00;;;;;;;21.67;4.10;;;;;;;;;;1730855;82;26309;-69
2022/11/01 05:54:29;;;;;;;22.43;4.93;;;;;;;;;;1730915;82;27084;-69
2022/11/01 05:56:57;;;;;;;21.13;4.37;;;;;;;;;;1749994;82;26277;-69
2022/11/01 05:59:25;;;;;;;26.33;5.90;;;;;;;;;;1750180;82;26246;-69
2022/11/01 06:01:53;;;;;;;24.83;5.17;;;;;;;;;;1750292;82;26316;-69
2022/11/01 06:04:22;;;;;;;24.93;5.57;;;;;;;;;;1750276;82;26258;-69
2022/11/01 06:06:51;;;;;;;25.40;5.73;;;;;;;;;;1750056;82;26375;-69
2022/11/01 06:09:19;;;;;;;20.63;4.97;;;;;;;;;;1750154;82;26242;-69
2022/11/01 06:11:47;;;;;;;26.73;5.63;;;;;;;;;;1730804;82;26245;-69
2022/11/01 06:14:16;;;;;;;31.23;5.80;;;;;;;;;;1750425;82;26250;-68
2022/11/01 06:16:44;;;;;;;25.10;5.73;;;;;;;;;;1750075;82;26316;-68
2022/11/01 06:19:13;;;;;;;25.00;5.50;;;;;;;;;;1702901;83;27082;-68
2022/11/01 06:21:41;;;;;;;28.87;5.07;;;;;;;;;;1713172;83;26528;-68
2022/11/01 06:24:10;;;;;;;20.47;5.13;;;;;;;;;;1750097;82;26243;-68
2022/11/01 06:26:39;;;;;;;18.63;4.73;;;;;;;;;;1749984;82;26320;-68
2022/11/01 06:29:07;;;;;;;14.37;4.33;;;;;;;;;;1731033;82;26254;-68
2022/11/01 06:31:35;;;;;;;19.23;4.17;;;;;;;;;;1730535;82;26312;-68
2022/11/01 06:34:04;;;;;;;26.87;5.47;;;;;;;;;;1730747;82;26230;-68
2022/11/01 06:36:32;;;;;;;22.17;5.20;;;;;;;;;;1749977;82;26331;-67
2022/11/01 06:39:00;;;;;;;18.13;4.90;;;;;;;;;;1750017;82;27166;-67
2022/11/01 06:41:28;;;;;;;15.67;4.10;;;;;;;;;;1730655;82;26376;-67
2022/11/01 06:43:57;;;;;;;15.37;3.37;;;;;;;;;;1750271;82;26259;-68
2022/11/01 06:46:25;;;;;;;15.67;3.20;;;;;;;;;;1730831;82;26249;-67
2022/11/01 06:48:54;;;;;;;9.83;2.60;;;;;;;;;;1730730;81;26340;-67
2022/11/01 06:51:22;;;;;;;12.27;2.30;;;;;;;;;;1750213;82;27169;-67
2022/11/01 06:53:51;;;;;;;9.83;2.40;;;;;;;;;;1702617;83;26279;-67
2022/11/01 06:56:19;;;;;;;5.57;1.77;;;;;;;;;;1698097;83;26287;-67
2022/11/01 06:58:49;;;;;;;8.47;1.80;;;;;;;;;;1681483;83;26279;-67
2022/11/01 07:01:20;;;;;;;6.60;1.93;;;;;;;;;;1749901;82;26900;-67
2022/11/01 07:03:51;;;;;;;8.03;1.90;;;;;;;;;;1750128;82;26258;-67
2022/11/01 07:06:19;;;;;;;6.00;2.03;;;;;;;;;;1750051;82;26770;-67
2022/11/01 07:08:48;;;;;;;9.57;2.00;;;;;;;;;;1750106;82;26258;-66
2022/11/01 07:11:16;;;;;;;6.17;1.93;;;;;;;;;;1749969;82;26258;-66
2022/11/01 07:13:44;;;;;;;9.23;2.13;;;;;;;;;;1750105;82;24189;-66
2022/11/01 07:16:13;;;;;;;9.33;2.13;;;;;;;;;;1750124;82;26316;-66
2022/11/01 07:18:41;;;;;;;11.67;2.47;;;;;;;;;;1750194;82;26254;-66
2022/11/01 07:21:10;;;;;;;13.67;3.03;;;;;;;;;;1750196;82;26589;-66
2022/11/01 07:23:38;;;;;;;16.30;3.80;;;;;;;;;;1750327;82;26791;-66
2022/11/01 07:26:06;;;;;;;21.50;4.03;;;;;;;;;;1750385;82;26315;-66
2022/11/01 07:28:35;;;;;;;21.57;4.47;;;;;;;;;;1704167;83;26260;-67
2022/11/01 07:31:03;;;;;;;20.90;3.60;;;;;;;;;;1721347;83;26279;-67
2022/11/01 07:33:32;;;;;;;18.70;4.17;;;;;;;;;;1750270;82;26238;-68
2022/11/01 07:36:01;;;;;;;19.50;3.83;;;;;;;;;;1750024;82;26355;-68
2022/11/01 07:38:29;;;;;;;13.37;3.47;;;;;;;;;;1750264;82;26273;-68
2022/11/01 07:40:57;;;;;;;15.73;3.20;;;;;;;;;;1703964;83;26390;-68
2022/11/01 07:43:26;;;;;;;12.77;3.17;;;;;;;;;;1702683;83;26273;-67
2022/11/01 07:45:57;;;;;;;12.70;3.53;;;;;;;;;;1726094;83;26316;-69
2022/11/01 07:48:25;;;;;;;13.93;4.13;;;;;;;;;;1721297;83;26840;-68
2022/11/01 07:50:56;;;;;;;19.90;4.10;;;;;;;;;;1725961;83;26261;-68
2022/11/01 07:53:24;;;;;;;19.20;4.50;;;;;;;;;;1721492;83;26287;-68
2022/11/01 07:55:53;;;;;;;18.97;4.37;;;;;;;;;;1749868;82;26627;-69
2022/11/01 07:58:22;;;;;;;15.20;3.93;;;;;;;;;;1722584;83;26296;-67
2022/11/01 08:00:50;;;;;;;14.30;3.43;;;;;;;;;;1721161;83;26331;-68
2022/11/01 08:03:19;;;;;;;16.43;3.47;;;;;;;;;;1750143;82;27075;-67
2022/11/01 08:05:47;;;;;;;8.57;2.80;;;;;;;;;;1702749;83;26272;-69
2022/11/01 08:08:17;;;;;;;12.93;2.43;;;;;;;;;;1750523;82;26254;-68
2022/11/01 08:10:45;;;;;;;8.53;2.30;;;;;;;;;;1750229;82;26647;-69
2022/11/01 08:13:15;;;;;;;9.40;2.10;;;;;;;;;;1750345;82;26265;-69
2022/11/01 08:15:43;;;;;;;4.50;1.47;;;;;;;;;;1750302;82;26246;-69
2022/11/01 08:18:13;;;;;;;7.17;1.93;;;;;;;;;;1750112;82;26865;-70
2022/11/01 08:20:42;;;;;;;7.07;1.57;;;;;;;;;;1750182;82;26242;-69
2022/11/01 08:23:11;;;;;;;5.93;1.60;;;;;;;;;;1750119;82;26258;-69
2022/11/01 08:25:39;;;;;;;4.47;1.40;;;;;;;;;;1750197;82;26743;-69
2022/11/01 08:28:09;;;;;;;3.70;0.80;;;;;;;;;;1750228;82;26804;-70
2022/11/01 08:30:38;;;;;;;4.07;0.83;;;;;;;;;;1721567;83;26346;-72
2022/11/01 08:33:06;;;;;;;2.97;0.60;;;;;;;;;;1750171;82;26296;-72
2022/11/01 08:35:34;;;;;;;3.07;0.80;;;;;;;;;;1750054;82;26258;-72
2022/11/01 08:38:03;;;;;;;2.17;0.90;;;;;;;;;;1702669;83;26303;-72
2022/11/01 08:40:32;;;;;;;2.47;0.50;;;;;;;;;;1750184;82;26258;-72
2022/11/01 08:43:01;;;;;;;4.40;1.17;;;;;;;;;;1702594;83;26346;-72
2022/11/01 08:45:29;;;;;;;3.57;1.00;;;;;;;;;;1750122;82;26359;-72
2022/11/01 08:47:58;;;;;;;3.93;0.70;;;;;;;;;;1730684;81;26295;-72
2022/11/01 08:50:27;;;;;;;2.87;0.70;;;;;;;;;;1750090;82;26254;-72
2022/11/01 08:52:56;;;;;;;4.53;1.10;;;;;;;;;;1750029;82;26267;-72
2022/11/01 08:55:24;;;;;;;4.43;1.07;;;;;;;;;;1750026;82;26680;-72
2022/11/01 08:57:53;;;;;;;4.37;1.40;;;;;;;;;;1750165;82;26326;-72
2022/11/01 09:00:22;;;;;;;4.33;1.30;;;;;;;;;;1750135;82;26246;-72
2022/11/01 09:02:50;;;;;;;3.27;1.07;;;;;;;;;;1702688;83;26346;-72
2022/11/01 09:05:18;;;;;;;4.80;1.07;;;;;;;;;;1750211;82;26254;-72
2022/11/01 09:07:47;;;;;;;5.97;1.23;;;;;;;;;;1750131;82;26802;-72
2022/11/01 09:10:16;;;;;;;8.63;1.50;;;;;;;;;;1750080;82;26312;-72
2022/11/01 09:12:44;;;;;;;5.95;1.45;;;;;;;;;;1750076;82;26250;-72
2022/11/01 09:15:13;;;;;;;7.25;1.50;;;;;;;;;;1750133;82;26247;-72
2022/11/01 09:17:41;;;;;;;3.60;1.20;;;;;;;;;;1750178;82;26289;-72
2022/11/01 09:20:10;;;;;;;6.00;1.60;;;;;;;;;;1750022;82;26764;-72
2022/11/01 09:22:38;;;;;;;7.70;1.40;;;;;;;;;;1750223;82;26238;-72
2022/11/01 09:25:08;;;;;;;6.40;1.85;;;;;;;;;;1750196;82;26826;-72
2022/11/01 09:27:36;;;;;;;6.10;1.60;;;;;;;;;;1750092;82;26352;-72
2022/11/01 09:30:05;;;;;;;9.00;1.80;;;;;;;;;;1730553;82;26336;-72
2022/11/01 09:32:34;;;;;;;9.20;2.00;;;;;;;;;;1750339;82;26261;-72
2022/11/01 09:35:02;;;;;;;5.45;1.75;;;;;;;;;;1750086;82;26698;-72
2022/11/01 09:37:31;;;;;;;9.30;1.60;;;;;;;;;;1750059;82;26768;-72
2022/11/01 09:39:58;;;;;;;;;;;;;;;;;;1702816;83;26275;-72
2022/11/01 09:42:26;;;;;;;;;;;;;;;;;;1750005;82;26360;-72
2022/11/01 09:44:53;;;;;;;;;;;;;;;;;;1732341;83;26788;-72
2022/11/01 09:47:20;;;;;;;;;;;;;;;;;;1732261;83;26363;-72
2022/11/01 09:49:47;;;;;;;;;;;;;;;;;;1732275;83;26321;-72
2022/11/01 09:52:14;;;;;;;;;;;;;;;;;;1750040;82;26335;-71
2022/11/01 09:54:41;;;;;;;;;;;;;;;;;;1750112;82;26265;-71
2022/11/01 09:57:08;;;;;;;;;;;;;;;;;;1749959;82;26260;-71
2022/11/01 09:59:34;;;;;;;;;;;;;;;;;;1750318;82;26264;-72
2022/11/01 10:02:02;;;;;;;;;;;;;;;;;;1750225;82;26256;-72
2022/11/01 10:04:29;;;;;;;;;;;;;;;;;;1750161;82;27077;-72
2022/11/01 10:06:55;;;;;;;;;;;;;;;;;;1750196;82;26762;-71
2022/11/01 10:09:22;;;;;;;;;;;;;;;;;;1750350;82;26738;-71
2022/11/01 10:11:49;;;;;;;;;;;;;;;;;;1750331;82;26794;-72
2022/11/01 10:14:17;;;;;;;;;;;;;;;;;;1750269;82;26816;-71
2022/11/01 10:16:44;;;;;;;;;;;;;;;;;;1722795;83;26223;-71
2022/11/01 10:19:14;;;;;;;10.00;2.65;;;;;;;;;;1722605;83;26278;-71
2022/11/01 10:21:44;;;;;;;7.30;1.90;;;;;;;;;;1750005;82;26246;-71
2022/11/01 10:24:17;;;;;;;9.90;2.70;;;;;;;;;;1750243;82;26254;-71
2022/11/01 10:26:46;;;;;;;11.30;2.70;;;;;;;;;;1749985;82;26754;-71
2022/11/01 10:29:16;;;;;;;9.93;2.83;;;;;;;;;;1730665;82;26254;-71
2022/11/01 10:31:45;;;;;;;7.90;2.90;;;;;;;;;;1749954;82;26731;-71
2022/11/01 10:34:16;;;;;;;8.47;3.30;;;;;;;;;;1750158;82;26309;-71
2022/11/01 10:36:45;;;;;;;7.50;3.80;;;;;;;;;;1750077;82;26240;-71
2022/11/01 10:39:16;;;;;;;10.37;5.40;;;;;;;;;;1750506;82;26329;-70
2022/11/01 10:41:47;;;;;;;11.47;5.63;;;;;;;;;;1721310;83;26311;-70
2022/11/01 10:44:17;;;;;;;11.57;2.23;;;;;;;;;;1717256;83;26269;-70
2022/11/01 10:46:46;;;;;;;11.53;2.70;;;;;;;;;;1721449;83;26264;-71
2022/11/01 10:49:19;;;;;;;11.10;2.47;;;;;;;;;;1698134;83;26777;-71
2022/11/01 10:51:49;;;;;;;13.60;3.27;;;;;;;;;;1784380;80;26713;-70
2022/11/01 10:54:19;;;;;;;11.00;3.33;;;;;;;;;;1784745;80;26227;-71
2022/11/01 10:56:49;;;;;;;12.33;3.10;;;;;;;;;;1750015;82;26330;-71
2022/11/01 10:59:19;;;;;;;13.00;3.17;;;;;;;;;;1750225;82;26262;-71
2022/11/01 11:01:55;;;;;;;0.60;0.30;;;;;;;;;;1750071;82;26238;-87
2022/11/01 11:04:25;;;;;;;0.20;0.10;;;;;;;;;;1680003;82;205598;-84
2022/11/01 11:06:55;;;;;;;0.10;0.00;;;;;;;;;;1750019;82;26246;-84
2022/11/01 11:09:25;;;;;;;0.20;0.10;;;;;;;;;;1750031;82;26344;-84
2022/11/01 11:11:56;;;;;;;0.90;0.90;;;;;;;;;;1750088;82;26242;-83
2022/11/01 11:14:27;;;;;;;0.10;0.10;;;;;;;;;;1750431;82;26305;-84
2022/11/01 11:16:56;;;;;;;0.10;0.10;;;;;;;;;;1702585;83;26753;-84
2022/11/01 11:19:27;;;;;;;1.30;1.30;;;;;;;;;;1750224;82;26368;-84
2022/11/01 11:21:57;;;;;;;0.10;0.00;;;;;;;;;;1720675;83;26264;-84
2022/11/01 11:24:26;;;;;;;0.27;0.10;;;;;;;;;;1750236;82;26258;-83
2022/11/01 11:26:55;;;;;;;0.00;0.00;;;;;;;;;;1737979;82;174092;-85
2022/11/01 11:29:28;;;;;;;0.20;0.20;;;;;;;;;;1740503;82;159306;-84
2022/11/01 11:31:55;;;;;;;;;;;;;;;;;;1712911;83;26264;-84
2022/11/01 11:34:23;;;;;;;;;;;;;;;;;;1721505;83;26323;-84
2022/11/01 11:36:53;;;;;;;0.10;0.10;;;;;;;;;;1712823;83;26749;-84
2022/11/01 11:39:25;;;;;;;0.10;0.10;;;;;;;;;;1750327;82;26308;-84
2022/11/01 11:41:53;;;;;;;;;;;;;;;;;;1750202;82;26743;-83
2022/11/01 11:44:19;;;;;;;;;;;;;;;;;;1732247;83;26759;-83
2022/11/01 11:46:56;;;;;;;0.80;0.80;;;;;;;;;;1732340;83;26728;-83
2022/11/01 11:49:28;;;;;;;0.40;0.40;;;;;;;;;;1732347;82;26810;-83
2022/11/01 11:51:55;;;;;;;;;;;;;;;;;;1715374;83;26786;-83
2022/11/01 11:54:22;;;;;;;;;;;;;;;;;;1750078;82;26272;-83
2022/11/01 11:56:49;;;;;;;;;;;;;;;;;;1750121;82;26326;-84
2022/11/01 11:59:21;;;;;;;0.00;0.00;;;;;;;;;;1750331;82;26273;-84
2022/11/01 12:01:48;;;;;;;;;;;;;;;;;;1750147;82;26246;-84
2022/11/01 12:04:17;;;;;;;;;;;;;;;;;;1732391;83;26269;-88
2022/11/01 12:06:46;;;;;;;;;;;;;;;;;;1732399;83;26309;-87
2022/11/01 12:09:13;;;;;;;;;;;;;;;;;;1750398;82;26262;-87
2022/11/01 12:11:40;;;;;;;;;;;;;;;;;;1750241;82;26854;-84
2022/11/01 12:14:12;;;;;;;3.93;3.83;;;;;;;;;;1750289;82;26264;-84
2022/11/01 12:16:41;;;;;;;9.07;8.77;;;;;;;;;;1764373;80;24756;-84
2022/11/01 12:19:22;;;;;;;0.63;0.63;;;;;;;;;;1784472;80;26243;-84
2022/11/01 12:21:51;;;;;;;9.53;9.23;;;;;;;;;;1784668;80;26893;-84
2022/11/01 12:24:22;;;;;;;35.00;33.50;;;;;;;;;;1784731;80;26239;-84
2022/11/01 12:26:52;;;;;;;2.20;2.20;;;;;;;;;;1765430;80;26303;-86
2022/11/01 12:29:19;;;;;;;;;;;;;;;;;;1785102;80;24635;-86
2022/11/01 12:31:48;;;;;;;1.50;1.50;;;;;;;;;;1784857;80;26699;-88
2022/11/01 12:34:19;;;;;;;0.90;0.90;;;;;;;;;;1750320;82;26691;-88
2022/11/01 12:36:52;;;;;;;3.20;3.10;;;;;;;;;;1749937;82;26209;-89
2022/11/01 12:39:26;;;;;;;3.90;3.80;;;;;;;;;;1750153;82;26245;-88
2022/11/01 12:41:59;;;;;;;3.73;3.63;;;;;;;;;;1749574;82;26235;-89
2022/11/01 12:44:31;;;;;;;0.57;0.57;;;;;;;;;;1750155;82;26261;-88
2022/11/01 12:47:02;;;;;;;0.20;0.20;;;;;;;;;;1750211;82;26258;-88
2022/11/01 12:49:34;;;;;;;0.10;0.10;;;;;;;;;;1750256;80;26865;-87
2022/11/01 12:52:04;;;;;;;11.47;11.07;;;;;;;;;;1750174;82;26842;-87
2022/11/01 12:54:34;;;;;;;12.80;12.40;;;;;;;;;;1750080;82;26690;-87
2022/11/01 12:57:03;;;;;;;0.67;0.67;;;;;;;;;;1749905;82;26262;-86
2022/11/01 12:59:34;;;;;;;0.10;0.10;;;;;;;;;;1721349;83;26342;-86
2022/11/01 13:02:05;;;;;;;0.00;0.00;;;;;;;;;;1740790;82;26825;-83
2022/11/01 13:04:35;;;;;;;0.50;0.50;;;;;;;;;;1764521;80;26243;-83
2022/11/01 13:07:07;;;;;;;0.10;0.10;;;;;;;;;;1784509;80;26298;-82
2022/11/01 13:09:38;;;;;;;0.00;0.00;;;;;;;;;;1784557;80;26168;-82
2022/11/01 13:12:08;;;;;;;0.60;0.60;;;;;;;;;;1746762;82;61750;-86
2022/11/01 13:14:52;;;;;;;0.70;0.70;;;;;;;;;;1750324;82;26186;-82
2022/11/01 13:17:19;;;;;;;;;;;;;;;;;;1749882;82;26760;-83
2022/11/01 13:19:51;;;;;;;0.20;0.20;;;;;;;;;;1732329;83;26856;-83
2022/11/01 13:22:23;;;;;;;0.10;0.10;;;;;;;;;;1732118;83;24543;-83
2022/11/01 13:24:53;;;;;;;10.53;10.23;;;;;;;;;;1732170;83;26250;-83
2022/11/01 13:27:24;;;;;;;0.17;0.17;;;;;;;;;;1725325;83;59757;-83
2022/11/01 13:29:55;;;;;;;0.00;0.00;;;;;;;;;;1750132;82;26272;-82
2022/11/01 13:32:28;;;;;;;0.23;0.23;;;;;;;;;;1750037;82;27156;-82
2022/11/01 13:34:59;;;;;;;0.40;0.40;;;;;;;;;;1704815;83;61776;-82
2022/11/01 13:37:30;;;;;;;0.00;0.00;;;;;;;;;;1710151;83;28371;-83
2022/11/01 13:40:02;;;;;;;0.47;0.47;;;;;;;;;;1721328;83;27124;-82
2022/11/01 13:43:40;;;;;;;0.00;0.00;;;;;;;13.81;45.14;103895.17;1947302;73;28226;-81
2022/11/01 13:50:06;;;;;;;0.00;0.00;;;;;;;14.50;45.13;103305.32;2057849;69;27775;-82
2022/11/01 13:55:41;;;;;;;0.00;0.00;;;;;;;14.14;45.09;103017.27;2056949;69;28061;-83
2022/11/01 16:50:37;;;;;;;34.00;30.40;;;;;;;10.60;44.95;102613.77;1931168;72;28117;-75
